sensor_id;sensor_type;location;lat;lon;timestamp;temperature;humidity
3466;DHT22;1747;48.884;9.160;2023-12-20T00:00:50;6.20;99.90
3466;DHT22;1747;48.884;9.160;2023-12-20T00:03:17;6.20;99.90
3466;DHT22;1747;48.884;9.160;2023-12-20T00:05:43;6.20;99.90
3466;DHT22;1747;48.884;9.160;2023-12-20T00:08:12;6.20;99.90
3466;DHT22;1747;48.884;9.160;2023-12-20T00:10:38;6.20;99.90
3466;DHT22;1747;48.884;9.160;2023-12-20T00:13:05;6.20;99.90
3466;DHT22;1747;48.884;9.160;2023-12-20T00:15:33;6.30;99.90
3466;DHT22;1747;48.884;9.160;2023-12-20T00:18:00;6.40;99.90
3466;DHT22;1747;48.884;9.160;2023-12-20T00:20:27;6.40;99.90
3466;DHT22;1747;48.884;9.160;2023-12-20T00:22:56;6.40;99.90
3466;DHT22;1747;48.884;9.160;2023-12-20T00:25:25;6.40;99.90
3466;DHT22;1747;48.884;9.160;2023-12-20T00:27:52;6.40;99.90
3466;DHT22;1747;48.884;9.160;2023-12-20T00:30:19;6.50;99.90
3466;DHT22;1747;48.884;9.160;2023-12-20T00:32:45;6.50;99.90
3466;DHT22;1747;48.884;9.160;2023-12-20T00:35:12;6.50;99.90
3466;DHT22;1747;48.884;9.160;2023-12-20T00:37:39;6.40;99.90
3466;DHT22;1747;48.884;9.160;2023-12-20T00:40:07;6.50;99.90
3466;DHT22;1747;48.884;9.160;2023-12-20T00:42:35;6.40;99.90
3466;DHT22;1747;48.884;9.160;2023-12-20T00:45:03;6.40;99.90
3466;DHT22;1747;48.884;9.160;2023-12-20T00:47:30;6.40;99.90
3466;DHT22;1747;48.884;9.160;2023-12-20T00:49:57;6.40;99.90
3466;DHT22;1747;48.884;9.160;2023-12-20T00:52:24;6.40;99.90
3466;DHT22;1747;48.884;9.160;2023-12-20T00:54:51;6.50;99.90
3466;DHT22;1747;48.884;9.160;2023-12-20T00:57:18;6.60;99.90
3466;DHT22;1747;48.884;9.160;2023-12-20T00:59:46;6.50;99.90
3466;DHT22;1747;48.884;9.160;2023-12-20T01:02:13;6.50;99.90
3466;DHT22;1747;48.884;9.160;2023-12-20T01:04:39;6.50;99.90
3466;DHT22;1747;48.884;9.160;2023-12-20T01:07:06;6.50;99.90
3466;DHT22;1747;48.884;9.160;2023-12-20T01:09:33;6.50;99.90
3466;DHT22;1747;48.884;9.160;2023-12-20T01:12:00;6.50;99.90
3466;DHT22;1747;48.884;9.160;2023-12-20T01:14:26;6.50;99.90
3466;DHT22;1747;48.884;9.160;2023-12-20T01:16:55;6.60;99.90
3466;DHT22;1747;48.884;9.160;2023-12-20T01:19:22;6.60;99.90
3466;DHT22;1747;48.884;9.160;2023-12-20T01:21:49;6.60;99.90
3466;DHT22;1747;48.884;9.160;2023-12-20T01:24:16;6.60;99.90
3466;DHT22;1747;48.884;9.160;2023-12-20T01:26:42;6.60;99.90
3466;DHT22;1747;48.884;9.160;2023-12-20T01:29:09;6.60;99.90
3466;DHT22;1747;48.884;9.160;2023-12-20T01:31:36;6.60;99.90
3466;DHT22;1747;48.884;9.160;2023-12-20T01:34:04;6.60;99.90
3466;DHT22;1747;48.884;9.160;2023-12-20T01:36:31;6.60;99.90
3466;DHT22;1747;48.884;9.160;2023-12-20T01:38:58;6.60;99.90
3466;DHT22;1747;48.884;9.160;2023-12-20T01:41:25;6.60;99.90
3466;DHT22;1747;48.884;9.160;2023-12-20T01:43:52;6.60;99.90
3466;DHT22;1747;48.884;9.160;2023-12-20T01:46:19;6.60;99.90
3466;DHT22;1747;48.884;9.160;2023-12-20T01:48:46;6.60;99.90
3466;DHT22;1747;48.884;9.160;2023-12-20T01:51:15;6.60;99.90
3466;DHT22;1747;48.884;9.160;2023-12-20T01:53:42;6.60;99.90
3466;DHT22;1747;48.884;9.160;2023-12-20T01:56:10;6.60;99.90
3466;DHT22;1747;48.884;9.160;2023-12-20T01:58:40;6.70;99.90
3466;DHT22;1747;48.884;9.160;2023-12-20T02:01:10;6.70;99.90
3466;DHT22;1747;48.884;9.160;2023-12-20T02:03:37;6.70;99.90
3466;DHT22;1747;48.884;9.160;2023-12-20T02:06:04;6.70;99.90
3466;DHT22;1747;48.884;9.160;2023-12-20T02:08:33;6.70;99.90
3466;DHT22;1747;48.884;9.160;2023-12-20T02:11:00;6.70;99.90
3466;DHT22;1747;48.884;9.160;2023-12-20T02:13:27;6.70;99.90
3466;DHT22;1747;48.884;9.160;2023-12-20T02:15:54;6.70;99.90
3466;DHT22;1747;48.884;9.160;2023-12-20T02:18:21;6.80;99.90
3466;DHT22;1747;48.884;9.160;2023-12-20T02:20:48;6.80;99.90
3466;DHT22;1747;48.884;9.160;2023-12-20T02:23:17;7.00;99.90
3466;DHT22;1747;48.884;9.160;2023-12-20T02:25:43;7.00;99.90
3466;DHT22;1747;48.884;9.160;2023-12-20T02:28:10;7.10;99.90
3466;DHT22;1747;48.884;9.160;2023-12-20T02:30:37;7.10;99.90
3466;DHT22;1747;48.884;9.160;2023-12-20T02:33:08;7.10;99.90
3466;DHT22;1747;48.884;9.160;2023-12-20T02:35:37;7.00;99.90
3466;DHT22;1747;48.884;9.160;2023-12-20T02:38:04;7.10;99.90
3466;DHT22;1747;48.884;9.160;2023-12-20T02:40:32;7.20;99.90
3466;DHT22;1747;48.884;9.160;2023-12-20T02:42:59;7.20;99.90
3466;DHT22;1747;48.884;9.160;2023-12-20T02:45:26;7.40;99.90
3466;DHT22;1747;48.884;9.160;2023-12-20T02:47:53;7.40;99.90
3466;DHT22;1747;48.884;9.160;2023-12-20T02:50:20;7.40;99.90
3466;DHT22;1747;48.884;9.160;2023-12-20T02:52:46;7.40;99.90
3466;DHT22;1747;48.884;9.160;2023-12-20T02:55:13;7.30;99.90
3466;DHT22;1747;48.884;9.160;2023-12-20T02:57:41;7.20;99.90
3466;DHT22;1747;48.884;9.160;2023-12-20T03:00:09;7.30;99.90
3466;DHT22;1747;48.884;9.160;2023-12-20T03:02:36;7.30;99.90
3466;DHT22;1747;48.884;9.160;2023-12-20T03:05:03;7.20;99.90
3466;DHT22;1747;48.884;9.160;2023-12-20T03:07:30;7.20;99.90
3466;DHT22;1747;48.884;9.160;2023-12-20T03:09:57;7.20;99.90
3466;DHT22;1747;48.884;9.160;2023-12-20T03:12:24;7.20;99.90
3466;DHT22;1747;48.884;9.160;2023-12-20T03:14:52;7.30;99.90
3466;DHT22;1747;48.884;9.160;2023-12-20T03:17:18;7.20;99.90
3466;DHT22;1747;48.884;9.160;2023-12-20T03:19:46;7.10;99.90
3466;DHT22;1747;48.884;9.160;2023-12-20T03:22:13;7.10;99.90
3466;DHT22;1747;48.884;9.160;2023-12-20T03:24:40;7.10;99.90
3466;DHT22;1747;48.884;9.160;2023-12-20T03:27:06;7.20;99.90
3466;DHT22;1747;48.884;9.160;2023-12-20T03:29:33;7.10;99.90
3466;DHT22;1747;48.884;9.160;2023-12-20T03:32:01;7.20;99.90
3466;DHT22;1747;48.884;9.160;2023-12-20T03:34:28;7.10;99.90
3466;DHT22;1747;48.884;9.160;2023-12-20T03:36:55;7.10;99.90
3466;DHT22;1747;48.884;9.160;2023-12-20T03:39:22;7.10;99.90
3466;DHT22;1747;48.884;9.160;2023-12-20T03:41:49;7.10;99.90
3466;DHT22;1747;48.884;9.160;2023-12-20T03:44:16;7.10;99.90
3466;DHT22;1747;48.884;9.160;2023-12-20T03:46:43;7.10;99.90
3466;DHT22;1747;48.884;9.160;2023-12-20T03:49:12;7.10;99.90
3466;DHT22;1747;48.884;9.160;2023-12-20T03:51:39;7.10;99.90
3466;DHT22;1747;48.884;9.160;2023-12-20T03:54:07;7.00;99.90
3466;DHT22;1747;48.884;9.160;2023-12-20T03:56:34;7.00;99.90
3466;DHT22;1747;48.884;9.160;2023-12-20T03:59:01;7.00;99.90
3466;DHT22;1747;48.884;9.160;2023-12-20T04:01:27;7.00;99.90
3466;DHT22;1747;48.884;9.160;2023-12-20T04:03:54;7.00;99.90
3466;DHT22;1747;48.884;9.160;2023-12-20T04:06:22;7.00;99.90
3466;DHT22;1747;48.884;9.160;2023-12-20T04:08:49;7.00;99.90
3466;DHT22;1747;48.884;9.160;2023-12-20T04:11:16;7.00;99.90
3466;DHT22;1747;48.884;9.160;2023-12-20T04:13:43;6.90;99.90
3466;DHT22;1747;48.884;9.160;2023-12-20T04:16:10;7.00;99.90
3466;DHT22;1747;48.884;9.160;2023-12-20T04:18:36;7.00;99.90
3466;DHT22;1747;48.884;9.160;2023-12-20T04:21:04;7.00;99.90
3466;DHT22;1747;48.884;9.160;2023-12-20T04:23:32;6.90;99.90
3466;DHT22;1747;48.884;9.160;2023-12-20T04:25:59;6.90;99.90
3466;DHT22;1747;48.884;9.160;2023-12-20T04:28:25;6.90;99.90
3466;DHT22;1747;48.884;9.160;2023-12-20T04:30:55;6.90;99.90
3466;DHT22;1747;48.884;9.160;2023-12-20T04:33:22;6.90;99.90
3466;DHT22;1747;48.884;9.160;2023-12-20T04:35:49;7.00;99.90
3466;DHT22;1747;48.884;9.160;2023-12-20T04:38:16;6.90;99.90
3466;DHT22;1747;48.884;9.160;2023-12-20T04:40:45;7.00;99.90
3466;DHT22;1747;48.884;9.160;2023-12-20T04:43:11;7.00;99.90
3466;DHT22;1747;48.884;9.160;2023-12-20T04:45:38;7.00;99.90
3466;DHT22;1747;48.884;9.160;2023-12-20T04:48:06;7.00;99.90
3466;DHT22;1747;48.884;9.160;2023-12-20T04:50:32;7.00;99.90
3466;DHT22;1747;48.884;9.160;2023-12-20T04:52:59;7.00;99.90
3466;DHT22;1747;48.884;9.160;2023-12-20T04:55:26;6.90;99.90
3466;DHT22;1747;48.884;9.160;2023-12-20T04:57:54;7.00;99.90
3466;DHT22;1747;48.884;9.160;2023-12-20T05:00:22;7.00;99.90
3466;DHT22;1747;48.884;9.160;2023-12-20T05:02:49;7.00;99.90
3466;DHT22;1747;48.884;9.160;2023-12-20T05:05:15;7.10;99.90
3466;DHT22;1747;48.884;9.160;2023-12-20T05:07:43;7.10;99.90
3466;DHT22;1747;48.884;9.160;2023-12-20T05:10:10;7.10;99.90
3466;DHT22;1747;48.884;9.160;2023-12-20T05:12:37;7.10;99.90
3466;DHT22;1747;48.884;9.160;2023-12-20T05:15:06;7.10;99.90
3466;DHT22;1747;48.884;9.160;2023-12-20T05:17:33;7.00;99.90
3466;DHT22;1747;48.884;9.160;2023-12-20T05:20:00;7.10;99.90
3466;DHT22;1747;48.884;9.160;2023-12-20T05:22:27;7.00;99.90
3466;DHT22;1747;48.884;9.160;2023-12-20T05:24:54;7.00;99.90
3466;DHT22;1747;48.884;9.160;2023-12-20T05:27:20;7.00;99.90
3466;DHT22;1747;48.884;9.160;2023-12-20T05:29:47;7.00;99.90
3466;DHT22;1747;48.884;9.160;2023-12-20T05:32:16;7.00;99.90
3466;DHT22;1747;48.884;9.160;2023-12-20T05:34:43;7.10;99.90
3466;DHT22;1747;48.884;9.160;2023-12-20T05:37:10;7.10;99.90
3466;DHT22;1747;48.884;9.160;2023-12-20T05:39:37;7.10;99.90
3466;DHT22;1747;48.884;9.160;2023-12-20T05:42:04;7.10;99.90
3466;DHT22;1747;48.884;9.160;2023-12-20T05:44:31;7.10;99.90
3466;DHT22;1747;48.884;9.160;2023-12-20T05:46:58;7.10;99.90
3466;DHT22;1747;48.884;9.160;2023-12-20T05:49:26;7.10;99.90
3466;DHT22;1747;48.884;9.160;2023-12-20T05:51:52;7.10;99.90
3466;DHT22;1747;48.884;9.160;2023-12-20T05:54:19;7.10;99.90
3466;DHT22;1747;48.884;9.160;2023-12-20T05:56:47;7.20;99.90
3466;DHT22;1747;48.884;9.160;2023-12-20T05:59:14;7.20;99.90
3466;DHT22;1747;48.884;9.160;2023-12-20T06:01:40;7.20;99.90
3466;DHT22;1747;48.884;9.160;2023-12-20T06:04:07;7.20;99.90
3466;DHT22;1747;48.884;9.160;2023-12-20T06:06:40;7.20;99.90
3466;DHT22;1747;48.884;9.160;2023-12-20T06:09:07;7.10;99.90
3466;DHT22;1747;48.884;9.160;2023-12-20T06:11:34;7.20;99.90
3466;DHT22;1747;48.884;9.160;2023-12-20T06:14:01;7.20;99.90
3466;DHT22;1747;48.884;9.160;2023-12-20T06:16:28;7.20;99.90
3466;DHT22;1747;48.884;9.160;2023-12-20T06:18:54;7.10;99.90
3466;DHT22;1747;48.884;9.160;2023-12-20T06:21:21;7.20;99.90
3466;DHT22;1747;48.884;9.160;2023-12-20T06:23:49;7.20;99.90
3466;DHT22;1747;48.884;9.160;2023-12-20T06:26:16;7.30;99.90
3466;DHT22;1747;48.884;9.160;2023-12-20T06:28:43;7.40;99.90
3466;DHT22;1747;48.884;9.160;2023-12-20T06:31:10;7.60;99.90
3466;DHT22;1747;48.884;9.160;2023-12-20T06:33:36;7.50;99.90
3466;DHT22;1747;48.884;9.160;2023-12-20T06:36:06;7.60;99.90
3466;DHT22;1747;48.884;9.160;2023-12-20T06:38:33;7.50;99.90
3466;DHT22;1747;48.884;9.160;2023-12-20T06:41:01;7.50;99.90
3466;DHT22;1747;48.884;9.160;2023-12-20T06:43:27;7.40;99.90
3466;DHT22;1747;48.884;9.160;2023-12-20T06:45:54;7.50;99.90
3466;DHT22;1747;48.884;9.160;2023-12-20T06:48:21;7.50;99.90
3466;DHT22;1747;48.884;9.160;2023-12-20T06:50:48;7.40;99.90
3466;DHT22;1747;48.884;9.160;2023-12-20T06:53:15;7.40;99.90
3466;DHT22;1747;48.884;9.160;2023-12-20T06:55:42;7.40;99.90
3466;DHT22;1747;48.884;9.160;2023-12-20T06:58:10;7.40;99.90
3466;DHT22;1747;48.884;9.160;2023-12-20T07:00:37;7.30;99.90
3466;DHT22;1747;48.884;9.160;2023-12-20T07:03:06;7.20;99.90
3466;DHT22;1747;48.884;9.160;2023-12-20T07:05:33;7.20;99.90
3466;DHT22;1747;48.884;9.160;2023-12-20T07:07:59;7.20;99.90
3466;DHT22;1747;48.884;9.160;2023-12-20T07:10:26;7.10;99.90
3466;DHT22;1747;48.884;9.160;2023-12-20T07:12:53;7.20;99.90
3466;DHT22;1747;48.884;9.160;2023-12-20T07:15:22;7.20;99.90
3466;DHT22;1747;48.884;9.160;2023-12-20T07:17:48;7.10;99.90
3466;DHT22;1747;48.884;9.160;2023-12-20T07:20:15;7.10;99.90
3466;DHT22;1747;48.884;9.160;2023-12-20T07:22:42;7.20;99.90
3466;DHT22;1747;48.884;9.160;2023-12-20T07:25:09;7.20;99.90
3466;DHT22;1747;48.884;9.160;2023-12-20T07:27:36;7.10;99.90
3466;DHT22;1747;48.884;9.160;2023-12-20T07:30:03;7.20;99.90
3466;DHT22;1747;48.884;9.160;2023-12-20T07:32:32;7.20;99.90
3466;DHT22;1747;48.884;9.160;2023-12-20T07:34:59;7.20;99.90
3466;DHT22;1747;48.884;9.160;2023-12-20T07:37:25;7.20;99.90
3466;DHT22;1747;48.884;9.160;2023-12-20T07:39:52;7.20;99.90
3466;DHT22;1747;48.884;9.160;2023-12-20T07:42:19;7.20;99.90
3466;DHT22;1747;48.884;9.160;2023-12-20T07:44:48;7.10;99.90
3466;DHT22;1747;48.884;9.160;2023-12-20T07:47:18;7.20;99.90
3466;DHT22;1747;48.884;9.160;2023-12-20T07:49:52;7.20;99.90
3466;DHT22;1747;48.884;9.160;2023-12-20T07:52:19;7.20;99.90
3466;DHT22;1747;48.884;9.160;2023-12-20T07:54:47;7.10;99.90
3466;DHT22;1747;48.884;9.160;2023-12-20T07:57:14;7.10;99.90
3466;DHT22;1747;48.884;9.160;2023-12-20T07:59:41;7.00;99.90
3466;DHT22;1747;48.884;9.160;2023-12-20T08:02:08;6.90;99.90
3466;DHT22;1747;48.884;9.160;2023-12-20T08:04:35;6.80;99.90
3466;DHT22;1747;48.884;9.160;2023-12-20T08:07:03;6.80;99.90
3466;DHT22;1747;48.884;9.160;2023-12-20T08:09:30;6.90;99.90
3466;DHT22;1747;48.884;9.160;2023-12-20T08:11:57;6.90;99.90
3466;DHT22;1747;48.884;9.160;2023-12-20T08:14:25;6.90;99.90
3466;DHT22;1747;48.884;9.160;2023-12-20T08:16:52;6.90;99.90
3466;DHT22;1747;48.884;9.160;2023-12-20T08:19:18;7.00;99.90
3466;DHT22;1747;48.884;9.160;2023-12-20T08:21:45;7.10;99.90
3466;DHT22;1747;48.884;9.160;2023-12-20T08:24:13;7.20;99.90
3466;DHT22;1747;48.884;9.160;2023-12-20T08:26:40;7.20;99.90
3466;DHT22;1747;48.884;9.160;2023-12-20T08:29:07;7.20;99.90
3466;DHT22;1747;48.884;9.160;2023-12-20T08:31:34;7.20;99.90
3466;DHT22;1747;48.884;9.160;2023-12-20T08:34:00;7.20;99.90
3466;DHT22;1747;48.884;9.160;2023-12-20T08:36:27;7.20;99.90
3466;DHT22;1747;48.884;9.160;2023-12-20T08:38:54;7.30;99.90
3466;DHT22;1747;48.884;9.160;2023-12-20T08:41:22;7.30;99.90
3466;DHT22;1747;48.884;9.160;2023-12-20T08:43:49;7.40;99.90
3466;DHT22;1747;48.884;9.160;2023-12-20T08:46:16;7.40;99.90
3466;DHT22;1747;48.884;9.160;2023-12-20T08:48:43;7.30;99.90
3466;DHT22;1747;48.884;9.160;2023-12-20T08:51:10;7.30;99.90
3466;DHT22;1747;48.884;9.160;2023-12-20T08:53:37;7.40;99.90
3466;DHT22;1747;48.884;9.160;2023-12-20T08:56:04;7.40;99.90
3466;DHT22;1747;48.884;9.160;2023-12-20T08:58:32;7.50;99.90
3466;DHT22;1747;48.884;9.160;2023-12-20T09:01:01;7.50;99.90
3466;DHT22;1747;48.884;9.160;2023-12-20T09:03:28;7.50;99.90
3466;DHT22;1747;48.884;9.160;2023-12-20T09:05:55;7.60;99.90
3466;DHT22;1747;48.884;9.160;2023-12-20T09:08:22;7.60;99.90
3466;DHT22;1747;48.884;9.160;2023-12-20T09:10:48;7.70;99.90
3466;DHT22;1747;48.884;9.160;2023-12-20T09:13:15;7.80;99.90
3466;DHT22;1747;48.884;9.160;2023-12-20T09:15:44;7.80;99.90
3466;DHT22;1747;48.884;9.160;2023-12-20T09:18:10;7.80;99.90
3466;DHT22;1747;48.884;9.160;2023-12-20T09:20:37;7.90;99.90
3466;DHT22;1747;48.884;9.160;2023-12-20T09:23:04;7.90;99.90
3466;DHT22;1747;48.884;9.160;2023-12-20T09:25:31;8.00;99.90
3466;DHT22;1747;48.884;9.160;2023-12-20T09:27:57;8.00;99.90
3466;DHT22;1747;48.884;9.160;2023-12-20T09:30:24;7.90;99.90
3466;DHT22;1747;48.884;9.160;2023-12-20T09:32:53;7.90;99.90
3466;DHT22;1747;48.884;9.160;2023-12-20T09:35:19;7.90;99.90
3466;DHT22;1747;48.884;9.160;2023-12-20T09:37:46;7.80;99.90
3466;DHT22;1747;48.884;9.160;2023-12-20T09:40:13;7.80;99.90
3466;DHT22;1747;48.884;9.160;2023-12-20T09:42:48;7.80;99.90
3466;DHT22;1747;48.884;9.160;2023-12-20T09:45:20;7.70;99.90
3466;DHT22;1747;48.884;9.160;2023-12-20T09:47:47;7.70;99.90
3466;DHT22;1747;48.884;9.160;2023-12-20T09:50:18;7.70;99.90
3466;DHT22;1747;48.884;9.160;2023-12-20T09:52:46;7.70;99.90
3466;DHT22;1747;48.884;9.160;2023-12-20T09:55:17;7.70;99.90
3466;DHT22;1747;48.884;9.160;2023-12-20T09:57:44;7.70;99.90
3466;DHT22;1747;48.884;9.160;2023-12-20T10:00:12;7.70;99.90
3466;DHT22;1747;48.884;9.160;2023-12-20T10:02:45;7.70;99.90
3466;DHT22;1747;48.884;9.160;2023-12-20T10:05:17;7.70;99.90
3466;DHT22;1747;48.884;9.160;2023-12-20T10:07:45;7.90;99.90
3466;DHT22;1747;48.884;9.160;2023-12-20T10:10:13;7.80;99.90
3466;DHT22;1747;48.884;9.160;2023-12-20T10:12:40;7.90;99.90
3466;DHT22;1747;48.884;9.160;2023-12-20T10:15:07;8.00;99.90
3466;DHT22;1747;48.884;9.160;2023-12-20T10:17:36;7.90;99.90
3466;DHT22;1747;48.884;9.160;2023-12-20T10:20:03;8.00;99.90
3466;DHT22;1747;48.884;9.160;2023-12-20T10:22:37;7.90;99.90
3466;DHT22;1747;48.884;9.160;2023-12-20T10:25:04;7.80;99.90
3466;DHT22;1747;48.884;9.160;2023-12-20T10:27:32;7.70;99.90
3466;DHT22;1747;48.884;9.160;2023-12-20T10:29:59;7.80;99.90
3466;DHT22;1747;48.884;9.160;2023-12-20T10:32:27;7.70;99.90
3466;DHT22;1747;48.884;9.160;2023-12-20T10:34:54;7.70;99.90
3466;DHT22;1747;48.884;9.160;2023-12-20T10:37:22;7.70;99.90
3466;DHT22;1747;48.884;9.160;2023-12-20T10:39:51;7.70;99.90
3466;DHT22;1747;48.884;9.160;2023-12-20T10:42:22;7.60;99.90
3466;DHT22;1747;48.884;9.160;2023-12-20T10:44:49;7.60;99.90
3466;DHT22;1747;48.884;9.160;2023-12-20T10:47:16;7.70;99.90
3466;DHT22;1747;48.884;9.160;2023-12-20T10:49:43;7.80;99.90
3466;DHT22;1747;48.884;9.160;2023-12-20T10:52:12;7.80;99.90
3466;DHT22;1747;48.884;9.160;2023-12-20T10:54:39;7.90;99.90
3466;DHT22;1747;48.884;9.160;2023-12-20T10:57:08;7.90;99.90
3466;DHT22;1747;48.884;9.160;2023-12-20T10:59:37;8.10;99.90
3466;DHT22;1747;48.884;9.160;2023-12-20T11:02:04;8.00;99.90
3466;DHT22;1747;48.884;9.160;2023-12-20T11:04:38;8.00;99.90
3466;DHT22;1747;48.884;9.160;2023-12-20T11:07:16;8.00;99.90
3466;DHT22;1747;48.884;9.160;2023-12-20T11:09:49;8.00;99.90
3466;DHT22;1747;48.884;9.160;2023-12-20T11:12:27;8.00;99.90
3466;DHT22;1747;48.884;9.160;2023-12-20T11:14:58;8.00;99.90
3466;DHT22;1747;48.884;9.160;2023-12-20T11:17:29;8.00;99.90
3466;DHT22;1747;48.884;9.160;2023-12-20T11:20:08;8.00;99.90
3466;DHT22;1747;48.884;9.160;2023-12-20T11:22:37;7.90;99.90
3466;DHT22;1747;48.884;9.160;2023-12-20T11:25:08;8.00;99.90
3466;DHT22;1747;48.884;9.160;2023-12-20T11:27:40;8.00;99.90
3466;DHT22;1747;48.884;9.160;2023-12-20T11:30:08;7.90;99.90
3466;DHT22;1747;48.884;9.160;2023-12-20T11:32:36;7.90;99.90
3466;DHT22;1747;48.884;9.160;2023-12-20T11:35:17;7.90;99.90
3466;DHT22;1747;48.884;9.160;2023-12-20T11:37:45;7.80;99.90
3466;DHT22;1747;48.884;9.160;2023-12-20T11:40:14;7.80;99.90
3466;DHT22;1747;48.884;9.160;2023-12-20T11:42:44;7.70;99.90
3466;DHT22;1747;48.884;9.160;2023-12-20T11:45:13;7.70;99.90
3466;DHT22;1747;48.884;9.160;2023-12-20T11:47:42;7.70;99.90
3466;DHT22;1747;48.884;9.160;2023-12-20T11:50:09;7.80;99.90
3466;DHT22;1747;48.884;9.160;2023-12-20T11:52:36;7.80;99.90
3466;DHT22;1747;48.884;9.160;2023-12-20T11:55:03;7.70;99.90
3466;DHT22;1747;48.884;9.160;2023-12-20T11:57:30;7.70;99.90
3466;DHT22;1747;48.884;9.160;2023-12-20T11:59:58;7.70;99.90
3466;DHT22;1747;48.884;9.160;2023-12-20T12:02:25;7.60;99.90
3466;DHT22;1747;48.884;9.160;2023-12-20T12:04:52;7.70;99.90
3466;DHT22;1747;48.884;9.160;2023-12-20T12:07:19;7.70;99.90
3466;DHT22;1747;48.884;9.160;2023-12-20T12:09:46;7.80;99.90
3466;DHT22;1747;48.884;9.160;2023-12-20T12:12:13;7.90;99.90
3466;DHT22;1747;48.884;9.160;2023-12-20T12:14:40;7.90;99.90
3466;DHT22;1747;48.884;9.160;2023-12-20T12:17:12;7.90;99.90
3466;DHT22;1747;48.884;9.160;2023-12-20T12:19:39;8.00;99.90
3466;DHT22;1747;48.884;9.160;2023-12-20T12:22:07;8.00;99.90
3466;DHT22;1747;48.884;9.160;2023-12-20T12:24:36;8.10;99.90
3466;DHT22;1747;48.884;9.160;2023-12-20T12:27:05;8.30;99.90
3466;DHT22;1747;48.884;9.160;2023-12-20T12:29:32;8.50;99.90
3466;DHT22;1747;48.884;9.160;2023-12-20T12:31:59;8.80;99.90
3466;DHT22;1747;48.884;9.160;2023-12-20T12:34:28;9.10;99.90
3466;DHT22;1747;48.884;9.160;2023-12-20T12:36:56;9.40;99.90
3466;DHT22;1747;48.884;9.160;2023-12-20T12:39:23;9.70;99.90
3466;DHT22;1747;48.884;9.160;2023-12-20T12:41:51;9.70;99.90
3466;DHT22;1747;48.884;9.160;2023-12-20T12:44:19;9.60;99.90
3466;DHT22;1747;48.884;9.160;2023-12-20T12:46:48;9.50;99.90
3466;DHT22;1747;48.884;9.160;2023-12-20T12:49:16;9.30;99.90
3466;DHT22;1747;48.884;9.160;2023-12-20T12:51:45;9.10;99.90
3466;DHT22;1747;48.884;9.160;2023-12-20T12:54:12;8.90;99.90
3466;DHT22;1747;48.884;9.160;2023-12-20T12:56:41;8.90;99.90
3466;DHT22;1747;48.884;9.160;2023-12-20T12:59:09;8.80;99.90
3466;DHT22;1747;48.884;9.160;2023-12-20T13:01:36;8.70;99.90
3466;DHT22;1747;48.884;9.160;2023-12-20T13:04:04;8.50;99.90
3466;DHT22;1747;48.884;9.160;2023-12-20T13:06:36;8.50;99.90
3466;DHT22;1747;48.884;9.160;2023-12-20T13:09:04;8.80;99.90
3466;DHT22;1747;48.884;9.160;2023-12-20T13:11:31;9.20;99.90
3466;DHT22;1747;48.884;9.160;2023-12-20T13:13:58;9.60;99.90
3466;DHT22;1747;48.884;9.160;2023-12-20T13:16:25;9.80;99.90
3466;DHT22;1747;48.884;9.160;2023-12-20T13:18:52;9.90;99.90
3466;DHT22;1747;48.884;9.160;2023-12-20T13:21:19;10.20;99.90
3466;DHT22;1747;48.884;9.160;2023-12-20T13:23:46;10.40;99.90
3466;DHT22;1747;48.884;9.160;2023-12-20T13:26:14;10.30;99.90
3466;DHT22;1747;48.884;9.160;2023-12-20T13:28:41;10.20;99.90
3466;DHT22;1747;48.884;9.160;2023-12-20T13:31:08;10.10;99.90
3466;DHT22;1747;48.884;9.160;2023-12-20T13:33:35;10.00;99.90
3466;DHT22;1747;48.884;9.160;2023-12-20T13:36:02;9.90;99.90
3466;DHT22;1747;48.884;9.160;2023-12-20T13:38:31;9.70;99.90
3466;DHT22;1747;48.884;9.160;2023-12-20T13:40:58;9.60;99.90
3466;DHT22;1747;48.884;9.160;2023-12-20T13:43:26;9.40;99.90
3466;DHT22;1747;48.884;9.160;2023-12-20T13:45:53;9.30;99.90
3466;DHT22;1747;48.884;9.160;2023-12-20T13:48:21;9.10;99.90
3466;DHT22;1747;48.884;9.160;2023-12-20T13:50:48;8.90;99.90
3466;DHT22;1747;48.884;9.160;2023-12-20T13:53:15;8.80;99.90
3466;DHT22;1747;48.884;9.160;2023-12-20T13:55:42;8.60;99.90
3466;DHT22;1747;48.884;9.160;2023-12-20T13:58:08;8.50;99.90
3466;DHT22;1747;48.884;9.160;2023-12-20T14:00:38;8.40;99.90
3466;DHT22;1747;48.884;9.160;2023-12-20T14:03:05;8.30;99.90
3466;DHT22;1747;48.884;9.160;2023-12-20T14:05:32;8.20;99.90
3466;DHT22;1747;48.884;9.160;2023-12-20T14:07:59;8.10;99.90
3466;DHT22;1747;48.884;9.160;2023-12-20T14:10:28;8.00;99.90
3466;DHT22;1747;48.884;9.160;2023-12-20T14:12:56;7.90;99.90
3466;DHT22;1747;48.884;9.160;2023-12-20T14:15:23;7.90;99.90
3466;DHT22;1747;48.884;9.160;2023-12-20T14:17:52;7.80;99.90
3466;DHT22;1747;48.884;9.160;2023-12-20T14:20:20;7.70;99.90
3466;DHT22;1747;48.884;9.160;2023-12-20T14:22:47;7.70;99.90
3466;DHT22;1747;48.884;9.160;2023-12-20T14:25:14;7.50;99.90
3466;DHT22;1747;48.884;9.160;2023-12-20T14:27:41;7.40;99.90
3466;DHT22;1747;48.884;9.160;2023-12-20T14:30:10;7.30;99.90
3466;DHT22;1747;48.884;9.160;2023-12-20T14:32:39;7.20;99.90
3466;DHT22;1747;48.884;9.160;2023-12-20T14:35:08;7.10;99.90
3466;DHT22;1747;48.884;9.160;2023-12-20T14:37:35;7.10;99.90
3466;DHT22;1747;48.884;9.160;2023-12-20T14:40:06;7.10;99.90
3466;DHT22;1747;48.884;9.160;2023-12-20T14:42:36;7.20;99.90
3466;DHT22;1747;48.884;9.160;2023-12-20T14:45:04;7.20;99.90
3466;DHT22;1747;48.884;9.160;2023-12-20T14:47:31;7.10;99.90
3466;DHT22;1747;48.884;9.160;2023-12-20T14:49:58;7.10;99.90
3466;DHT22;1747;48.884;9.160;2023-12-20T14:52:26;7.10;99.90
3466;DHT22;1747;48.884;9.160;2023-12-20T14:54:53;7.10;99.90
3466;DHT22;1747;48.884;9.160;2023-12-20T14:57:20;7.20;99.90
3466;DHT22;1747;48.884;9.160;2023-12-20T14:59:47;7.10;99.90
3466;DHT22;1747;48.884;9.160;2023-12-20T15:02:14;7.10;99.90
3466;DHT22;1747;48.884;9.160;2023-12-20T15:04:41;7.10;99.90
3466;DHT22;1747;48.884;9.160;2023-12-20T15:07:07;7.10;99.90
3466;DHT22;1747;48.884;9.160;2023-12-20T15:09:36;7.10;99.90
3466;DHT22;1747;48.884;9.160;2023-12-20T15:12:03;7.00;99.90
3466;DHT22;1747;48.884;9.160;2023-12-20T15:14:30;7.00;99.90
3466;DHT22;1747;48.884;9.160;2023-12-20T15:16:57;7.10;99.90
3466;DHT22;1747;48.884;9.160;2023-12-20T15:19:24;7.10;99.90
3466;DHT22;1747;48.884;9.160;2023-12-20T15:21:51;7.10;99.90
3466;DHT22;1747;48.884;9.160;2023-12-20T15:24:18;7.10;99.90
3466;DHT22;1747;48.884;9.160;2023-12-20T15:26:54;7.10;99.90
3466;DHT22;1747;48.884;9.160;2023-12-20T15:29:21;7.00;99.90
3466;DHT22;1747;48.884;9.160;2023-12-20T15:31:48;7.00;99.90
3466;DHT22;1747;48.884;9.160;2023-12-20T15:34:15;7.00;99.90
3466;DHT22;1747;48.884;9.160;2023-12-20T15:36:43;7.00;99.90
3466;DHT22;1747;48.884;9.160;2023-12-20T15:39:09;7.00;99.90
3466;DHT22;1747;48.884;9.160;2023-12-20T15:41:39;7.10;99.90
3466;DHT22;1747;48.884;9.160;2023-12-20T15:44:08;7.10;99.90
3466;DHT22;1747;48.884;9.160;2023-12-20T15:46:35;7.00;99.90
3466;DHT22;1747;48.884;9.160;2023-12-20T15:49:02;7.10;99.90
3466;DHT22;1747;48.884;9.160;2023-12-20T15:51:28;7.00;99.90
3466;DHT22;1747;48.884;9.160;2023-12-20T15:53:55;7.00;99.90
3466;DHT22;1747;48.884;9.160;2023-12-20T15:56:22;6.80;99.90
3466;DHT22;1747;48.884;9.160;2023-12-20T15:58:49;6.80;99.90
3466;DHT22;1747;48.884;9.160;2023-12-20T16:01:18;6.80;99.90
3466;DHT22;1747;48.884;9.160;2023-12-20T16:03:45;6.80;99.90
3466;DHT22;1747;48.884;9.160;2023-12-20T16:06:12;6.80;99.90
3466;DHT22;1747;48.884;9.160;2023-12-20T16:08:39;6.90;99.90
3466;DHT22;1747;48.884;9.160;2023-12-20T16:11:06;6.90;99.90
3466;DHT22;1747;48.884;9.160;2023-12-20T16:13:32;7.00;99.90
3466;DHT22;1747;48.884;9.160;2023-12-20T16:16:01;7.00;99.90
3466;DHT22;1747;48.884;9.160;2023-12-20T16:18:29;7.00;99.90